Time;durP1;ratioP1;P1;durP2;ratioP2;P2;SDS_P1;SDS_P2;PMS_P1;PMS_P2;Temp;Humidity;BMP_temperature;BMP_pressure;BME280_temperature;BME280_humidity;BME280_pressure;Samples;Min_cycle;Max_cycle;Signal;HPM_P1;HPM_P2
2022/12/05 00:01:53;;;;;;;19.00;13.20;;;;;;;1.05;88.38;101405.53;102332;1314;95072;-61
2022/12/05 00:04:24;;;;;;;21.50;15.00;;;;;;;1.06;88.45;101405.30;102317;1316;81179;-62
2022/12/05 00:06:56;;;;;;;21.00;14.80;;;;;;;1.03;88.35;101401.25;102365;1314;80970;-61
2022/12/05 00:09:28;;;;;;;19.30;13.40;;;;;;;0.95;88.35;101403.21;102404;1308;97413;-61
2022/12/05 00:12:01;;;;;;;21.20;15.70;;;;;;;0.93;88.48;101401.08;102353;1315;88700;-61
2022/12/05 00:14:32;;;;;;;19.70;13.40;;;;;;;0.93;88.57;101403.17;102398;1315;92822;-62
2022/12/05 00:17:03;;;;;;;20.80;14.40;;;;;;;0.89;88.58;101403.81;102370;1312;81681;-62
2022/12/05 00:19:34;;;;;;;20.40;14.90;;;;;;;0.85;88.64;101404.76;102339;1313;83106;-61
2022/12/05 00:22:08;;;;;;;19.10;13.50;;;;;;;0.87;88.58;101406.62;102349;1312;97454;-60
2022/12/05 00:24:42;;;;;;;20.20;15.30;;;;;;;0.82;88.66;101408.16;102374;1315;88694;-60
2022/12/05 00:27:14;;;;;;;21.80;15.80;;;;;;;0.82;88.74;101407.84;102365;1312;95111;-62
2022/12/05 00:29:47;;;;;;;22.50;15.30;;;;;;;0.85;88.64;101409.25;102131;1315;78334;-62
2022/12/05 00:32:18;;;;;;;21.50;14.80;;;;;;;0.87;88.64;101408.07;102336;1316;80515;-61
2022/12/05 00:34:52;;;;;;;22.60;16.30;;;;;;;0.86;88.66;101414.83;102370;1313;96961;-60
2022/12/05 00:37:22;;;;;;;18.60;13.40;;;;;;;0.88;88.75;101409.00;102340;1302;87889;-61
2022/12/05 00:39:53;;;;;;;21.50;14.60;;;;;;;0.94;88.54;101412.17;102133;1318;97411;-61
2022/12/05 00:42:24;;;;;;;20.70;14.20;;;;;;;0.93;88.57;101413.85;102342;1310;81196;-60
2022/12/05 00:44:57;;;;;;;20.90;15.00;;;;;;;0.98;88.55;101417.41;102388;1313;83253;-60
2022/12/05 00:47:30;;;;;;;21.80;14.80;;;;;;;0.98;88.58;101412.06;102350;1305;99228;-63
2022/12/05 00:50:09;;;;;;;21.30;15.00;;;;;;;0.95;88.56;101408.70;102364;1302;89193;-63
2022/12/05 00:52:41;;;;;;;20.90;15.00;;;;;;;0.94;88.53;101409.80;102384;1310;94141;-61
2022/12/05 00:55:13;;;;;;;22.90;15.30;;;;;;;0.94;88.63;101413.56;102368;1314;78545;-61
2022/12/05 00:57:44;;;;;;;21.90;16.00;;;;;;;0.89;88.65;101414.64;102397;1308;82061;-63
2022/12/05 01:00:20;;;;;;;23.00;15.00;;;;;;;0.92;88.64;101420.98;102376;1307;97753;-62
2022/12/05 01:02:53;;;;;;;23.50;15.50;;;;;;;0.91;88.56;101416.45;102372;1315;87802;-61
2022/12/05 01:05:29;;;;;;;24.70;16.30;;;;;;;0.92;88.57;101413.52;102233;1314;92991;-62
2022/12/05 01:08:06;;;;;;;20.20;14.40;;;;;;;0.93;88.47;101406.35;102332;1309;77858;-60
2022/12/05 01:10:38;;;;;;;22.30;14.30;;;;;;;0.91;88.55;101401.20;102280;1309;81911;-60
2022/12/05 01:13:09;;;;;;;22.30;15.20;;;;;;;0.90;88.43;101403.92;102332;1315;97606;-62
2022/12/05 01:15:40;;;;;;;20.50;14.30;;;;;;;0.93;88.35;101401.58;102385;1315;88014;-60
2022/12/05 01:18:14;;;;;;;20.30;14.90;;;;;;;0.89;88.49;101400.61;102341;1314;94910;-61
2022/12/05 01:20:48;;;;;;;20.70;15.20;;;;;;;0.90;88.42;101399.32;102362;1312;79769;-62
2022/12/05 01:23:19;;;;;;;23.00;16.20;;;;;;;0.90;88.36;101386.73;102385;1309;82940;-62
2022/12/05 01:25:52;;;;;;;23.60;16.00;;;;;;;0.90;88.31;101388.45;102368;1309;98171;-62
2022/12/05 01:28:23;;;;;;;22.00;14.90;;;;;;;0.91;88.38;101383.44;102300;1308;88311;-62
2022/12/05 01:30:55;;;;;;;24.70;15.90;;;;;;;0.90;88.40;101379.65;102356;1315;94083;-61
2022/12/05 01:33:27;;;;;;;24.00;16.50;;;;;;;0.89;88.43;101385.02;102368;1309;81263;-61
2022/12/05 01:35:59;;;;;;;23.20;16.00;;;;;;;0.87;88.55;101382.66;102402;1304;82440;-60
2022/12/05 01:38:32;;;;;;;20.80;15.20;;;;;;;0.88;88.38;101378.89;102349;1305;97580;-59
2022/12/05 01:41:06;;;;;;;24.10;16.10;;;;;;;0.79;88.52;101376.48;102396;1312;89443;-61
2022/12/05 01:44:27;;;;;;;23.70;16.10;;;;;;;0.81;88.59;101375.64;102373;1307;95641;-61
2022/12/05 01:47:01;;;;;;;24.30;16.50;;;;;;;0.87;88.43;101372.94;102351;1312;80801;-61
2022/12/05 01:49:39;;;;;;;21.00;14.70;;;;;;;0.87;88.48;101370.60;102380;1315;81702;-62
2022/12/05 01:52:18;;;;;;;24.20;16.20;;;;;;;0.86;88.53;101374.79;102349;1313;99678;-58
2022/12/05 01:54:56;;;;;;;23.80;16.50;;;;;;;0.89;88.53;101373.52;102365;1311;87397;-62
2022/12/05 01:57:30;;;;;;;30.60;18.20;;;;;;;0.94;88.34;101371.23;102350;1313;95161;-61
2022/12/05 02:00:12;;;;;;;22.30;15.60;;;;;;;0.93;88.31;101372.65;102324;1309;80701;-60
2022/12/05 02:02:48;;;;;;;23.80;16.70;;;;;;;0.90;88.42;101372.00;102397;1314;82963;-61
2022/12/05 02:05:31;;;;;;;22.90;16.30;;;;;;;0.87;88.38;101363.73;102360;1309;98924;-61
2022/12/05 02:08:07;;;;;;;31.70;18.40;;;;;;;0.87;88.48;101361.96;102396;1309;89281;-62
2022/12/05 02:10:42;;;;;;;23.40;16.20;;;;;;;0.85;88.43;101356.73;102376;1314;94342;-62
2022/12/05 02:13:34;;;;;;;28.70;18.60;;;;;;;0.87;88.30;101356.81;102347;1309;81734;-62
2022/12/05 02:16:13;;;;;;;26.30;17.10;;;;;;;0.88;88.35;101349.95;102390;1308;83403;-60
2022/12/05 02:19:03;;;;;;;39.80;21.80;;;;;;;0.86;88.36;101345.00;102386;1315;96869;-60
2022/12/05 02:22:20;;;;;;;41.90;24.80;;;;;;;0.82;88.29;101345.45;102353;1302;88290;-59
2022/12/05 02:25:21;;;;;;;30.50;18.30;;;;;;;0.72;88.43;101343.65;102332;1316;94359;-60
2022/12/05 02:28:30;;;;;;;20.70;14.80;;;;;;;0.69;88.41;101344.70;102380;1302;81872;-62
2022/12/05 02:31:15;;;;;;;32.80;18.20;;;;;;;0.68;88.38;101345.86;102415;1310;81269;-60
2022/12/05 02:33:52;;;;;;;27.80;17.70;;;;;;;0.69;88.52;101339.92;102306;1309;97690;-61
2022/12/05 02:36:34;;;;;;;25.30;17.20;;;;;;;0.72;88.33;101337.77;102367;1305;87915;-62
2022/12/05 02:39:15;;;;;;;27.90;17.20;;;;;;;0.74;88.36;101339.09;102398;1308;93975;-61
2022/12/05 02:42:00;;;;;;;26.30;17.80;;;;;;;0.72;88.43;101336.38;102351;1302;79719;-61
2022/12/05 02:44:37;;;;;;;19.80;14.00;;;;;;;0.68;88.37;101340.69;102337;1315;82976;-61
2022/12/05 02:47:12;;;;;;;24.50;16.50;;;;;;;0.66;88.48;101336.77;102358;1315;98817;-62
2022/12/05 02:49:48;;;;;;;21.50;15.20;;;;;;;0.67;88.38;101331.92;102266;1308;88776;-59
2022/12/05 02:52:20;;;;;;;24.80;15.80;;;;;;;0.69;88.35;101329.17;102365;1315;94462;-58
2022/12/05 02:54:55;;;;;;;17.00;12.40;;;;;;;0.65;88.37;101321.21;102347;1308;80989;-58
2022/12/05 02:57:26;;;;;;;22.70;15.50;;;;;;;0.62;88.37;101319.16;102401;1316;82080;-59
2022/12/05 03:00:00;;;;;;;29.10;18.30;;;;;;;0.55;88.50;101306.98;102361;1308;98359;-59
2022/12/05 03:02:39;;;;;;;20.80;14.10;;;;;;;0.58;88.49;101306.28;102375;1308;89193;-59
2022/12/05 03:05:29;;;;;;;20.30;15.20;;;;;;;0.59;88.47;101298.23;102363;1302;94504;-60
2022/12/05 03:08:04;;;;;;;20.50;14.70;;;;;;;0.58;88.50;101297.77;102349;1315;79538;-59
2022/12/05 03:10:39;;;;;;;25.10;16.90;;;;;;;0.60;88.45;101294.66;102388;1302;81952;-58
2022/12/05 03:13:20;;;;;;;20.70;15.10;;;;;;;0.61;88.42;101295.45;102415;1308;99015;-60
2022/12/05 03:15:56;;;;;;;18.00;13.30;;;;;;;0.63;88.42;101291.95;102270;1315;89484;-59
2022/12/05 03:18:34;;;;;;;27.80;18.20;;;;;;;0.61;88.44;101288.58;102346;1308;95986;-59
2022/12/05 03:21:20;;;;;;;22.20;15.60;;;;;;;0.59;88.54;101300.33;102301;1314;80581;-61
2022/12/05 03:23:58;;;;;;;19.70;15.10;;;;;;;0.60;88.50;101300.65;102363;1309;81396;-61
2022/12/05 03:26:55;;;;;;;17.00;13.40;;;;;;;0.59;88.43;101303.88;102374;1308;98410;-60
2022/12/05 03:29:31;;;;;;;;;;;;;;;0.59;88.48;101308.67;102413;1308;88878;-60
2022/12/05 03:32:16;;;;;;;20.30;13.20;;;;;;;0.55;88.42;101308.77;102376;1310;95433;-61
2022/12/05 03:35:03;;;;;;;21.00;14.20;;;;;;;0.52;88.48;101310.60;102337;1313;79270;-60
2022/12/05 03:37:51;;;;;;;20.60;13.00;;;;;;;0.57;88.51;101317.86;102349;1315;80819;-59
2022/12/05 03:40:37;;;;;;;16.00;12.60;;;;;;;0.55;88.50;101330.58;102333;1308;97724;-59
2022/12/05 03:43:15;;;;;;;16.50;12.40;;;;;;;0.55;88.51;101337.13;102357;1305;86814;-59
2022/12/05 03:45:49;;;;;;;17.90;12.80;;;;;;;0.57;88.38;101342.70;102340;1310;95819;-61
2022/12/05 03:48:30;;;;;;;15.70;12.60;;;;;;;0.60;88.46;101349.42;102355;1308;80123;-59
2022/12/05 03:51:04;;;;;;;17.50;12.20;;;;;;;0.59;88.42;101340.76;102370;1310;79801;-60
2022/12/05 03:53:44;;;;;;;17.60;12.90;;;;;;;0.62;88.38;101334.25;102345;1306;96519;-60
2022/12/05 03:56:21;;;;;;;20.10;13.20;;;;;;;0.64;88.36;101331.27;102365;1302;89335;-60
2022/12/05 03:59:02;;;;;;;21.70;14.00;;;;;;;0.66;88.31;101332.39;102386;1299;94445;-59
2022/12/05 04:01:36;;;;;;;17.10;12.50;;;;;;;0.67;88.25;101332.84;102379;1316;81234;-62
2022/12/05 04:04:16;;;;;;;16.30;11.90;;;;;;;0.66;88.24;101331.64;102363;1315;81787;-61
2022/12/05 04:06:50;;;;;;;17.30;12.60;;;;;;;0.64;88.36;101324.30;102307;1309;97923;-61
2022/12/05 04:09:30;;;;;;;19.30;12.80;;;;;;;0.61;88.29;101319.75;102353;1293;88562;-60
2022/12/05 04:12:07;;;;;;;17.00;12.80;;;;;;;0.64;88.25;101318.45;102370;1315;93808;-61
2022/12/05 04:14:49;;;;;;;19.10;12.20;;;;;;;0.63;88.29;101314.44;102269;1308;80218;-61
2022/12/05 04:17:31;;;;;;;21.70;14.20;;;;;;;0.65;88.17;101310.05;102363;1308;81717;-59
2022/12/05 04:22:56;;;;;;;17.80;12.80;;;;;;;0.66;88.23;101307.55;102389;1308;88971;-59
2022/12/05 04:25:38;;;;;;;16.70;12.40;;;;;;;0.66;88.07;101310.70;102330;1316;93904;-60
2022/12/05 04:28:27;;;;;;;16.60;11.90;;;;;;;0.60;88.12;101302.56;102373;1302;80200;-61
2022/12/05 04:31:05;;;;;;;16.10;13.10;;;;;;;0.59;88.10;101302.67;102355;1308;82963;-59
2022/12/05 04:33:44;;;;;;;17.60;11.60;;;;;;;0.61;88.19;101305.92;102358;1310;98519;-59
2022/12/05 04:36:19;;;;;;;18.00;12.80;;;;;;;0.58;88.03;101297.91;102370;1313;88010;-60
2022/12/05 04:38:59;;;;;;;18.90;14.50;;;;;;;0.62;88.08;101302.82;102362;1309;95211;-59
2022/12/05 04:41:36;;;;;;;16.00;12.80;;;;;;;0.64;88.16;101301.79;102394;1309;81604;-61
2022/12/05 04:44:15;;;;;;;18.80;14.30;;;;;;;0.63;88.00;101293.24;102439;1315;80961;-61
2022/12/05 04:46:51;;;;;;;16.20;11.90;;;;;;;0.59;88.07;101298.39;102389;1308;99448;-60
2022/12/05 04:49:23;;;;;;;;;;;;;;;0.54;88.09;101299.27;102406;1308;88145;-60
2022/12/05 04:52:00;;;;;;;14.50;11.90;;;;;;;0.52;88.03;101295.91;102226;1312;96800;-59
2022/12/05 04:54:36;;;;;;;17.30;13.30;;;;;;;0.52;88.06;101300.33;102330;1310;81675;-60
2022/12/05 04:57:17;;;;;;;18.60;13.60;;;;;;;0.54;88.13;101300.33;102350;1313;81951;-60
2022/12/05 04:59:48;;;;;;;16.90;13.10;;;;;;;0.59;88.12;101296.50;102343;1315;99302;-60
2022/12/05 05:02:27;;;;;;;17.20;12.40;;;;;;;0.63;88.00;101298.18;102356;1307;87231;-61
2022/12/05 05:05:09;;;;;;;17.50;12.90;;;;;;;0.60;88.06;101299.56;101956;1308;490836;-61
2022/12/05 05:07:48;;;;;;;14.60;11.50;;;;;;;0.61;88.05;101298.12;102333;1315;81850;-59
2022/12/05 05:10:26;;;;;;;16.00;12.10;;;;;;;0.64;87.93;101295.29;102348;1307;82859;-60
2022/12/05 05:12:59;;;;;;;16.40;12.60;;;;;;;0.60;87.79;101302.75;102349;1305;97020;-61
2022/12/05 05:15:30;;;;;;;17.30;13.00;;;;;;;0.63;87.94;101305.64;102319;1309;87413;-61
2022/12/05 05:18:02;;;;;;;16.90;12.70;;;;;;;0.67;87.89;101305.89;102378;1304;93719;-62
2022/12/05 05:20:36;;;;;;;19.90;14.60;;;;;;;0.67;87.90;101310.27;102344;1308;79113;-60
2022/12/05 05:23:07;;;;;;;17.40;13.10;;;;;;;0.63;87.91;101314.09;102370;1300;82583;-60
2022/12/05 05:25:38;;;;;;;19.30;15.30;;;;;;;0.60;87.91;101313.25;102370;1316;99185;-60
2022/12/05 05:28:10;;;;;;;18.40;14.90;;;;;;;0.58;87.70;101314.23;102406;1308;88364;-60
2022/12/05 05:30:43;;;;;;;15.90;12.40;;;;;;;0.51;87.71;101317.19;102344;1315;95842;-58
2022/12/05 05:33:20;;;;;;;15.00;11.60;;;;;;;0.50;87.69;101321.00;102435;1308;79602;-58
2022/12/05 05:35:53;;;;;;;17.00;12.20;;;;;;;0.48;87.69;101321.28;102378;1309;83642;-60
2022/12/05 05:38:26;;;;;;;14.60;11.10;;;;;;;0.47;87.71;101323.86;102337;1309;98539;-60
2022/12/05 05:40:59;;;;;;;15.40;12.10;;;;;;;0.46;87.77;101318.80;102388;1309;86914;-62
2022/12/05 05:43:33;;;;;;;15.10;11.10;;;;;;;0.48;87.65;101322.20;102338;1307;93828;-61
2022/12/05 05:46:15;;;;;;;14.70;10.90;;;;;;;0.50;87.75;101322.81;102340;1315;80311;-59
2022/12/05 05:48:48;;;;;;;15.10;10.50;;;;;;;0.50;87.74;101315.34;102368;1302;83178;-59
2022/12/05 05:51:24;;;;;;;14.10;11.10;;;;;;;0.49;87.70;101318.92;102378;1316;98324;-60
2022/12/05 05:53:59;;;;;;;17.20;12.30;;;;;;;0.54;87.72;101316.33;102323;1309;88546;-61
2022/12/05 05:56:31;;;;;;;14.20;11.70;;;;;;;0.60;87.59;101316.45;102355;1307;95652;-62
2022/12/05 05:59:04;;;;;;;17.10;12.40;;;;;;;0.55;87.55;101317.08;102257;1306;78142;-62
2022/12/05 06:01:35;;;;;;;16.70;12.30;;;;;;;0.49;87.49;101318.25;102288;1300;81118;-60
2022/12/05 06:04:08;;;;;;;17.70;11.70;;;;;;;0.49;87.55;101319.83;102364;1308;99136;-62
2022/12/05 06:06:40;;;;;;;16.60;12.90;;;;;;;0.48;87.51;101325.04;102396;1305;89013;-61
2022/12/05 06:09:14;;;;;;;16.10;11.70;;;;;;;0.54;87.51;101318.62;102351;1315;94794;-61
2022/12/05 06:11:44;;;;;;;16.90;12.00;;;;;;;0.61;87.53;101317.23;102373;1308;81469;-61
2022/12/05 06:14:17;;;;;;;16.10;11.90;;;;;;;0.60;87.52;101318.34;102339;1315;82094;-60
2022/12/05 06:16:52;;;;;;;15.60;11.90;;;;;;;0.65;87.48;101316.30;102353;1309;99249;-60
2022/12/05 06:19:23;;;;;;;13.60;10.30;;;;;;;0.64;87.44;101316.40;102371;1310;87206;-60
2022/12/05 06:21:55;;;;;;;16.10;12.10;;;;;;;0.62;87.41;101314.90;102345;1302;94829;-61
2022/12/05 06:24:34;;;;;;;16.30;11.80;;;;;;;0.58;87.40;101315.10;102328;1309;82260;-62
2022/12/05 06:27:08;;;;;;;14.80;11.00;;;;;;;0.53;87.46;101313.18;102376;1312;81719;-59
2022/12/05 06:29:38;;;;;;;16.10;11.40;;;;;;;0.53;87.47;101314.95;102333;1309;97911;-59
2022/12/05 06:32:10;;;;;;;18.40;12.10;;;;;;;0.54;87.50;101310.43;102371;1308;88706;-59
2022/12/05 06:34:44;;;;;;;15.90;11.80;;;;;;;0.59;87.56;101310.30;102374;1308;94701;-59
2022/12/05 06:37:16;;;;;;;16.00;12.00;;;;;;;0.65;87.38;101306.55;102362;1308;79354;-59
2022/12/05 06:39:46;;;;;;;17.20;12.20;;;;;;;0.67;87.40;101309.41;102390;1308;82933;-59
2022/12/05 06:42:17;;;;;;;16.10;11.50;;;;;;;0.61;87.54;101308.36;102324;1309;97900;-59
2022/12/05 06:44:54;;;;;;;17.60;13.30;;;;;;;0.61;87.54;101311.58;102354;1308;89381;-59
2022/12/05 06:47:27;;;;;;;16.40;12.70;;;;;;;0.60;87.43;101313.91;102110;1312;97098;-59
2022/12/05 06:50:01;;;;;;;19.00;12.90;;;;;;;0.57;87.47;101315.53;102323;1308;79938;-58
2022/12/05 06:52:36;;;;;;;17.90;13.20;;;;;;;0.53;87.57;101319.17;102372;1309;82444;-60
2022/12/05 06:55:09;;;;;;;16.90;12.70;;;;;;;0.54;87.55;101323.39;102271;1315;99074;-59
2022/12/05 06:57:40;;;;;;;17.40;12.60;;;;;;;0.58;87.61;101320.09;102332;1308;89548;-61
2022/12/05 07:03:06;;;;;;;13.70;10.90;;;;;;;0.67;87.58;101319.14;102384;1309;78464;-59
2022/12/05 07:05:39;;;;;;;18.10;13.80;;;;;;;0.71;87.62;101319.78;102390;1310;83440;-64
2022/12/05 07:08:10;;;;;;;21.60;14.60;;;;;;;0.75;87.53;101320.90;102391;1310;96184;-62
2022/12/05 07:10:51;;;;;;;17.00;12.80;;;;;;;0.77;87.52;101313.85;102349;1309;88331;-61
2022/12/05 07:13:23;;;;;;;19.30;13.60;;;;;;;0.73;87.46;101312.70;102374;1309;92806;-61
2022/12/05 07:15:57;;;;;;;20.60;13.60;;;;;;;0.71;87.49;101309.49;102394;1316;80209;-60
2022/12/05 07:18:29;;;;;;;18.80;14.00;;;;;;;0.69;87.42;101306.61;102403;1315;83442;-59
2022/12/05 07:21:05;;;;;;;17.40;11.70;;;;;;;0.70;87.52;101303.90;102367;1308;96796;-60
2022/12/05 07:23:36;;;;;;;18.40;13.50;;;;;;;0.68;87.54;101308.12;102373;1308;86404;-60
2022/12/05 07:26:10;;;;;;;21.40;14.10;;;;;;;0.72;87.64;101311.36;102328;1308;93876;-61
2022/12/05 07:28:42;;;;;;;17.90;13.60;;;;;;;0.77;87.59;101308.74;102346;1308;79595;-61
2022/12/05 07:31:16;;;;;;;18.10;13.00;;;;;;;0.84;87.57;101307.85;102360;1308;82629;-61
2022/12/05 07:33:48;;;;;;;18.90;13.30;;;;;;;0.87;87.53;101305.58;102367;1315;97694;-61
2022/12/05 07:36:22;;;;;;;18.80;13.60;;;;;;;0.93;87.57;101298.74;102336;1316;89506;-62
2022/12/05 07:38:58;;;;;;;20.20;13.80;;;;;;;0.92;87.39;101300.05;102359;1308;95775;-60
2022/12/05 07:41:31;;;;;;;18.40;13.20;;;;;;;0.89;87.41;101301.54;102384;1308;79192;-63
2022/12/05 07:44:10;;;;;;;18.80;13.50;;;;;;;0.95;87.43;101301.98;102343;1307;82936;-63
2022/12/05 07:46:43;;;;;;;20.00;13.70;;;;;;;0.97;87.51;101304.13;102350;1302;96906;-62
2022/12/05 07:49:14;;;;;;;18.50;13.40;;;;;;;1.03;87.34;101294.64;102361;1308;88889;-63
2022/12/05 07:51:48;;;;;;;20.20;13.70;;;;;;;1.03;87.38;101295.18;102386;1301;95606;-61
2022/12/05 07:54:22;;;;;;;21.50;14.50;;;;;;;1.03;87.41;101288.60;102314;1307;79366;-60
2022/12/05 07:56:53;;;;;;;20.00;14.70;;;;;;;1.10;87.27;101281.35;102375;1308;83097;-61
2022/12/05 07:59:23;;;;;;;18.90;14.20;;;;;;;1.10;87.28;101281.92;102345;1316;97318;-60
2022/12/05 08:01:56;;;;;;;22.50;14.80;;;;;;;1.09;87.21;101278.11;102326;1302;86229;-61
2022/12/05 08:04:32;;;;;;;21.10;13.60;;;;;;;1.09;87.06;101282.02;102331;1308;95461;-60
2022/12/05 08:07:05;;;;;;;19.60;13.50;;;;;;;1.00;87.02;101283.52;102323;1308;81096;-61
2022/12/05 08:09:38;;;;;;;20.30;12.80;;;;;;;0.99;87.07;101277.05;102312;1309;82797;-61
2022/12/05 08:12:13;;;;;;;21.70;15.00;;;;;;;1.02;87.09;101272.92;102351;1307;100270;-60
2022/12/05 08:14:44;;;;;;;20.10;14.20;;;;;;;1.04;87.00;101275.80;102273;1309;87839;-59
2022/12/05 08:17:15;;;;;;;21.30;14.70;;;;;;;1.02;87.07;101275.20;102324;1315;95612;-58
2022/12/05 08:19:48;;;;;;;16.80;13.20;;;;;;;1.01;87.13;101278.46;102389;1307;80312;-59
2022/12/05 08:22:19;;;;;;;18.50;13.10;;;;;;;1.02;87.02;101279.98;102392;1308;82627;-60
2022/12/05 08:24:51;;;;;;;17.80;12.40;;;;;;;1.07;86.96;101278.25;102358;1308;98720;-59
2022/12/05 08:27:23;;;;;;;;;;;;;;;1.07;87.01;101280.35;102365;1308;87823;-61
2022/12/05 08:29:57;;;;;;;19.60;13.20;;;;;;;1.07;87.10;101289.42;102331;1308;94328;-59
2022/12/05 08:32:29;;;;;;;18.90;13.30;;;;;;;1.10;86.98;101292.04;102273;1309;79770;-61
2022/12/05 08:35:04;;;;;;;16.10;10.90;;;;;;;1.09;87.02;101293.19;102358;1309;83029;-63
2022/12/05 08:37:35;;;;;;;21.30;14.30;;;;;;;1.15;87.00;101293.29;102380;1310;98548;-60
2022/12/05 08:40:11;;;;;;;18.70;13.50;;;;;;;1.16;86.88;101290.55;102337;1309;89008;-60
2022/12/05 08:42:43;;;;;;;20.90;14.60;;;;;;;1.10;86.85;101289.22;102329;1309;96121;-60
2022/12/05 08:45:16;;;;;;;18.00;12.70;;;;;;;1.11;86.98;101289.08;102344;1308;81691;-59
2022/12/05 08:47:46;;;;;;;19.80;13.60;;;;;;;1.10;87.04;101291.85;102363;1308;81908;-61
2022/12/05 08:50:21;;;;;;;22.40;14.60;;;;;;;1.09;86.88;101283.40;102342;1309;98491;-61
2022/12/05 08:52:54;;;;;;;19.80;13.90;;;;;;;1.11;86.87;101286.08;102356;1302;88819;-59
2022/12/05 08:55:25;;;;;;;23.30;13.20;;;;;;;1.09;86.98;101286.98;102325;1308;95082;-58
2022/12/05 08:57:58;;;;;;;18.70;13.00;;;;;;;1.06;86.87;101282.20;102338;1308;81002;-58
2022/12/05 09:00:30;;;;;;;20.90;14.00;;;;;;;1.05;86.86;101284.39;102337;1300;83509;-59
2022/12/05 09:03:01;;;;;;;20.70;14.30;;;;;;;1.08;86.87;101273.90;102335;1308;97869;-62
2022/12/05 09:05:36;;;;;;;18.20;13.90;;;;;;;1.08;87.03;101275.52;102390;1315;89357;-61
2022/12/05 09:08:09;;;;;;;19.60;13.30;;;;;;;1.11;86.97;101278.61;102332;1308;93564;-60
2022/12/05 09:10:43;;;;;;;20.00;13.70;;;;;;;1.14;86.96;101273.42;102343;1308;81085;-61
2022/12/05 09:13:14;;;;;;;19.50;14.00;;;;;;;1.16;86.96;101274.00;102344;1308;83634;-61
2022/12/05 09:15:48;;;;;;;19.10;13.80;;;;;;;1.16;87.00;101271.17;102343;1309;98823;-60
2022/12/05 09:18:19;;;;;;;19.60;14.10;;;;;;;1.24;86.96;101267.09;102375;1309;87761;-60
2022/12/05 09:20:52;;;;;;;19.10;13.00;;;;;;;1.29;86.78;101263.20;102340;1305;95464;-60
2022/12/05 09:23:26;;;;;;;21.70;15.20;;;;;;;1.34;86.86;101254.48;102317;1309;80155;-60
2022/12/05 09:26:01;;;;;;;22.10;14.80;;;;;;;1.40;86.77;101256.53;102367;1310;82173;-59
2022/12/05 09:28:32;;;;;;;22.50;15.40;;;;;;;1.38;86.73;101251.85;102353;1305;100061;-60
2022/12/05 09:31:06;;;;;;;23.20;15.30;;;;;;;1.39;86.70;101243.11;102385;1307;88421;-59
2022/12/05 09:33:41;;;;;;;22.20;15.50;;;;;;;1.33;86.58;101236.26;102315;1302;95490;-58
2022/12/05 09:36:17;;;;;;;22.20;15.40;;;;;;;1.29;86.65;101234.61;102348;1302;80575;-60
2022/12/05 09:38:51;;;;;;;21.40;15.00;;;;;;;1.28;86.68;101229.34;102330;1309;81299;-60
2022/12/05 09:44:56;;;;;;;27.70;17.30;;;;;;;1.33;86.61;101230.96;102313;1308;87394;-61
2022/12/05 09:47:38;;;;;;;21.80;14.40;;;;;;;1.30;86.63;101231.38;102359;1308;95111;-60
2022/12/05 09:50:20;;;;;;;25.60;16.30;;;;;;;1.33;86.66;101231.66;102361;1310;81810;-59
2022/12/05 09:53:03;;;;;;;29.60;16.90;;;;;;;1.42;86.65;101225.70;102375;1302;80466;-61
2022/12/05 09:55:46;;;;;;;22.50;15.50;;;;;;;1.51;86.37;101220.27;102353;1309;100019;-60
2022/12/05 09:58:32;;;;;;;29.60;18.60;;;;;;;1.55;86.41;101227.73;102395;1309;88573;-60
2022/12/05 10:01:19;;;;;;;23.40;14.70;;;;;;;1.53;86.25;101222.22;102305;1316;94333;-60
2022/12/05 10:04:21;;;;;;;26.70;16.50;;;;;;;1.53;86.42;101222.39;102364;1311;80920;-62
2022/12/05 10:07:01;;;;;;;22.90;16.00;;;;;;;1.56;86.48;101223.39;102381;1309;81564;-61
2022/12/05 10:09:54;;;;;;;23.70;15.10;;;;;;;1.58;86.33;101223.08;102347;1308;99241;-60
2022/12/05 10:12:47;;;;;;;24.60;15.60;;;;;;;1.56;86.12;101226.21;102364;1315;87785;-60
2022/12/05 10:15:29;;;;;;;26.10;16.60;;;;;;;1.50;86.09;101216.58;102360;1308;94092;-59
2022/12/05 10:18:14;;;;;;;23.80;16.10;;;;;;;1.46;86.27;101210.68;102347;1308;79330;-61
2022/12/05 10:20:55;;;;;;;25.00;16.20;;;;;;;1.46;86.35;101213.31;102362;1302;81146;-60
2022/12/05 10:23:35;;;;;;;26.10;17.00;;;;;;;1.53;86.28;101213.00;102355;1309;99561;-59
2022/12/05 10:26:14;;;;;;;26.00;16.90;;;;;;;1.46;86.20;101207.11;102339;1308;85852;-60
2022/12/05 10:28:55;;;;;;;25.90;16.70;;;;;;;1.44;86.18;101201.77;102343;1302;94135;-60
2022/12/05 10:31:37;;;;;;;25.40;16.90;;;;;;;1.47;86.33;101201.21;102377;1309;79818;-61
2022/12/05 10:34:22;;;;;;;23.10;14.80;;;;;;;1.48;86.29;101200.77;102409;1312;82545;-60
2022/12/05 10:37:00;;;;;;;26.60;16.50;;;;;;;1.45;86.37;101202.93;102369;1309;99834;-60
2022/12/05 10:39:32;;;;;;;22.30;15.10;;;;;;;1.50;86.48;101200.39;102415;1308;88772;-60
2022/12/05 10:42:06;;;;;;;;;;;;;;;1.59;86.31;101195.66;102388;1315;95586;-62
2022/12/05 10:44:38;;;;;;;26.20;16.20;;;;;;;1.63;86.42;101190.38;102371;1308;79101;-64
2022/12/05 10:47:09;;;;;;;28.30;16.90;;;;;;;1.62;86.43;101187.45;102380;1302;81574;-63
2022/12/05 10:49:43;;;;;;;26.10;17.60;;;;;;;1.60;86.28;101189.56;102351;1309;99202;-62
2022/12/05 10:52:16;;;;;;;27.30;16.90;;;;;;;1.59;86.21;101191.77;102361;1302;89038;-60
2022/12/05 10:54:58;;;;;;;30.00;18.40;;;;;;;1.60;86.28;101190.65;102359;1305;94928;-62
2022/12/05 10:57:34;;;;;;;25.60;17.80;;;;;;;1.60;86.19;101193.63;102347;1315;81132;-63
2022/12/05 11:00:19;;;;;;;24.10;15.60;;;;;;;1.61;86.11;101191.05;102363;1313;81363;-62
2022/12/05 11:02:52;;;;;;;23.00;16.50;;;;;;;1.63;86.32;101186.31;102365;1306;98420;-62
2022/12/05 11:05:34;;;;;;;27.20;17.40;;;;;;;1.65;86.29;101181.39;102340;1309;89008;-63
2022/12/05 11:08:24;;;;;;;26.50;17.30;;;;;;;1.64;86.26;101177.73;102379;1309;94825;-59
2022/12/05 11:11:06;;;;;;;28.00;17.20;;;;;;;1.65;86.20;101172.29;102356;1316;81568;-61
2022/12/05 11:13:36;;;;;;;28.50;17.70;;;;;;;1.67;86.26;101171.48;102355;1302;81568;-62
2022/12/05 11:16:24;;;;;;;27.10;16.40;;;;;;;1.66;86.18;101167.44;102372;1308;100263;-60
2022/12/05 11:18:54;;;;;;;28.10;18.20;;;;;;;1.60;86.17;101161.70;102363;1308;88304;-61
2022/12/05 11:21:41;;;;;;;29.00;19.10;;;;;;;1.62;86.27;101159.59;102356;1315;94397;-61
2022/12/05 11:24:28;;;;;;;30.90;20.00;;;;;;;1.63;86.32;101152.40;102408;1307;79915;-59
2022/12/05 11:27:21;;;;;;;30.60;18.70;;;;;;;1.61;86.17;101152.20;102372;1309;82823;-60
2022/12/05 11:30:21;;;;;;;27.80;17.20;;;;;;;1.62;86.31;101148.05;102351;1316;98179;-60
2022/12/05 11:33:18;;;;;;;27.90;17.00;;;;;;;1.62;86.30;101142.40;102203;1311;88591;-60
2022/12/05 11:35:51;;;;;;;28.70;18.30;;;;;;;1.65;86.42;101144.44;102362;1308;95417;-62
2022/12/05 11:38:27;;;;;;;28.60;17.50;;;;;;;1.67;86.36;101138.27;102373;1309;80576;-62
2022/12/05 11:41:14;;;;;;;32.30;18.70;;;;;;;1.67;86.35;101133.83;102326;1314;83122;-62
2022/12/05 11:44:14;;;;;;;24.60;13.70;;;;;;;1.74;86.35;101131.30;102332;1316;99274;-60
2022/12/05 11:47:06;;;;;;;29.20;17.80;;;;;;;1.69;86.25;101128.54;102373;1302;89014;-60
2022/12/05 11:49:59;;;;;;;26.60;16.80;;;;;;;1.77;86.37;101125.64;102313;1309;96930;-60
2022/12/05 11:52:51;;;;;;;27.50;16.90;;;;;;;1.84;86.44;101125.44;102317;1305;81109;-60
2022/12/05 11:55:29;;;;;;;29.10;18.00;;;;;;;1.83;86.38;101125.00;102367;1308;81809;-61
2022/12/05 11:58:47;;;;;;;28.70;17.30;;;;;;;1.85;86.19;101130.16;102366;1308;99446;-62
2022/12/05 12:01:38;;;;;;;33.50;18.50;;;;;;;1.82;86.21;101129.71;102321;1312;89424;-61
2022/12/05 12:04:58;;;;;;;36.90;19.50;;;;;;;1.83;86.29;101128.02;102365;1306;95168;-60